createdAt,value
2016-10-01T00:00:13.095Z,59.00
2016-10-01T00:01:12.693Z,58.97
2016-10-01T00:02:13.137Z,58.96
2016-10-01T00:03:15.589Z,59.00
2016-10-01T00:04:12.922Z,58.97
2016-10-01T00:05:13.167Z,59.00
2016-10-01T00:06:13.255Z,58.96
2016-10-01T00:07:12.714Z,58.94
2016-10-01T00:08:13.751Z,58.94
2016-10-01T00:09:13.695Z,58.94
2016-10-01T00:10:13.577Z,58.92
2016-10-01T00:11:13.398Z,58.91
2016-10-01T00:12:13.017Z,58.89
2016-10-01T00:13:18.365Z,58.90
2016-10-01T00:14:13.306Z,58.85
2016-10-01T00:15:13.083Z,58.86
2016-10-01T00:16:14.174Z,58.87
2016-10-01T00:17:13.293Z,58.87
2016-10-01T00:18:12.827Z,58.90
2016-10-01T00:19:13.226Z,58.85
2016-10-01T00:20:12.973Z,58.85
2016-10-01T00:21:12.874Z,58.85
2016-10-01T00:22:13.370Z,58.84
2016-10-01T00:23:14.712Z,58.87
2016-10-01T00:24:13.857Z,58.78
2016-10-01T00:25:13.221Z,58.80
2016-10-01T00:26:15.319Z,58.80
2016-10-01T00:27:13.371Z,58.81
2016-10-01T00:28:15.521Z,58.78
2016-10-01T00:29:13.006Z,58.78
2016-10-01T00:30:14.059Z,58.76
2016-10-01T00:31:14.982Z,58.73
2016-10-01T00:32:13.796Z,58.71
2016-10-01T00:33:13.454Z,58.75
2016-10-01T00:34:14.131Z,58.74
2016-10-01T00:35:13.016Z,58.71
2016-10-01T00:36:12.325Z,58.70
2016-10-01T00:37:13.014Z,58.65
2016-10-01T00:38:09.801Z,58.70
2016-10-01T00:39:14.475Z,58.68
2016-10-01T00:40:13.017Z,58.69
2016-10-01T00:41:12.553Z,58.70
2016-10-01T00:42:13.028Z,58.69
2016-10-01T00:43:12.356Z,58.66
2016-10-01T00:44:13.265Z,58.64
2016-10-01T00:45:13.367Z,58.62
2016-10-01T00:46:13.305Z,58.60
2016-10-01T00:47:13.204Z,58.60
2016-10-01T00:48:12.744Z,58.60
2016-10-01T00:49:13.777Z,58.61
2016-10-01T00:50:13.776Z,58.64
2016-10-01T00:51:13.898Z,58.64
2016-10-01T00:52:13.815Z,58.60
2016-10-01T00:53:12.122Z,58.64
2016-10-01T00:54:13.427Z,58.61
2016-10-01T00:55:14.301Z,58.61
2016-10-01T00:56:12.741Z,58.56
2016-10-01T00:57:14.854Z,58.56
2016-10-01T00:58:13.571Z,58.55
2016-10-01T00:59:12.875Z,58.58
2016-10-01T01:00:14.700Z,58.57
2016-10-01T01:01:11.812Z,58.53
2016-10-01T01:02:13.949Z,57.62
2016-10-01T01:03:15.791Z,57.39
2016-10-01T01:04:14.320Z,57.33
2016-10-01T01:05:13.143Z,58.19
2016-10-01T01:06:13.492Z,58.35
2016-10-01T01:07:14.066Z,58.43
2016-10-01T01:08:13.949Z,58.45
2016-10-01T01:09:15.266Z,58.50
2016-10-01T01:10:14.275Z,58.50
2016-10-01T01:11:15.336Z,58.53
2016-10-01T01:12:15.310Z,58.58
2016-10-01T01:13:15.988Z,58.62
2016-10-01T01:14:14.915Z,58.57
2016-10-01T01:15:14.157Z,58.53
2016-10-01T01:16:14.518Z,58.53
2016-10-01T01:17:11.935Z,58.52
2016-10-01T01:18:14.526Z,58.54
2016-10-01T01:19:15.624Z,58.55
2016-10-01T01:20:18.095Z,58.55
2016-10-01T01:21:15.305Z,58.57
2016-10-01T01:22:16.215Z,58.51
2016-10-01T01:23:11.038Z,58.49
2016-10-01T01:24:14.293Z,58.48
2016-10-01T01:25:15.270Z,58.49
2016-10-01T01:26:14.537Z,58.45
2016-10-01T01:27:14.151Z,58.48
2016-10-01T01:28:12.593Z,58.47
2016-10-01T01:29:13.190Z,58.50
2016-10-01T01:30:13.153Z,58.49
2016-10-01T01:31:18.225Z,58.45
2016-10-01T01:32:13.171Z,58.46
2016-10-01T01:33:13.372Z,58.45
2016-10-01T01:34:14.032Z,58.40
2016-10-01T01:35:13.204Z,58.41
2016-10-01T01:36:13.375Z,58.38
2016-10-01T01:37:12.883Z,58.40
2016-10-01T01:38:10.909Z,58.43
2016-10-01T01:39:12.989Z,58.39
2016-10-01T01:40:14.032Z,58.41
2016-10-01T01:41:15.217Z,58.41
2016-10-01T01:42:14.518Z,58.39
2016-10-01T01:43:10.495Z,58.42
2016-10-01T01:44:14.856Z,58.44
2016-10-01T01:45:13.390Z,58.42
2016-10-01T01:46:12.857Z,58.42
2016-10-01T01:47:14.020Z,58.40
2016-10-01T01:48:13.024Z,58.29
2016-10-01T01:49:12.475Z,57.50
2016-10-01T01:50:11.873Z,57.21
2016-10-01T01:51:13.966Z,57.21
2016-10-01T01:52:12.647Z,58.01
2016-10-01T01:53:13.983Z,58.21
2016-10-01T01:54:13.374Z,58.30
2016-10-01T01:55:13.365Z,58.31
2016-10-01T01:56:13.858Z,58.35
2016-10-01T01:57:13.457Z,58.34
2016-10-01T01:58:11.713Z,58.25
2016-10-01T01:59:13.406Z,57.77
2016-10-01T02:00:13.100Z,58.17
2016-10-01T02:01:10.733Z,58.28
2016-10-01T02:02:14.716Z,58.36
2016-10-01T02:03:13.654Z,58.34
2016-10-01T02:04:18.701Z,58.36
2016-10-01T02:05:14.177Z,58.37
2016-10-01T02:06:13.208Z,58.34
2016-10-01T02:07:12.655Z,58.29
2016-10-01T02:08:13.845Z,58.29
2016-10-01T02:09:10.188Z,58.30
2016-10-01T02:10:12.303Z,58.25
2016-10-01T02:11:13.335Z,58.28
2016-10-01T02:12:13.192Z,58.29
2016-10-01T02:13:13.564Z,58.28
2016-10-01T02:14:13.850Z,58.28
2016-10-01T02:15:15.704Z,58.29
2016-10-01T02:16:12.904Z,58.24
2016-10-01T02:17:10.828Z,58.25
2016-10-01T02:18:14.445Z,58.22
2016-10-01T02:19:15.044Z,58.23
2016-10-01T02:20:13.377Z,58.21
2016-10-01T02:21:13.408Z,58.23
2016-10-01T02:22:19.103Z,58.20
2016-10-01T02:23:13.573Z,58.23
2016-10-01T02:24:13.051Z,58.20
2016-10-01T02:25:13.927Z,58.21
2016-10-01T02:26:13.194Z,58.20
2016-10-01T02:27:13.853Z,58.21
2016-10-01T02:28:14.908Z,58.19
2016-10-01T02:29:13.684Z,58.20
2016-10-01T02:30:13.653Z,58.21
2016-10-01T02:31:11.916Z,58.25
2016-10-01T02:32:14.020Z,58.19
2016-10-01T02:33:13.381Z,58.19
2016-10-01T02:34:15.271Z,58.18
2016-10-01T02:35:12.839Z,58.19
2016-10-01T02:36:14.424Z,58.18
2016-10-01T02:37:12.977Z,58.15
2016-10-01T02:38:13.017Z,58.18
2016-10-01T02:39:14.293Z,58.19
2016-10-01T02:40:12.740Z,58.17
2016-10-01T02:41:13.710Z,58.19
2016-10-01T02:42:13.208Z,58.17
2016-10-01T02:43:13.384Z,58.18
2016-10-01T02:44:14.437Z,58.17
2016-10-01T02:45:13.772Z,58.16
2016-10-01T02:46:14.004Z,58.17
2016-10-01T02:47:13.120Z,58.16
2016-10-01T02:48:14.130Z,58.16
2016-10-01T02:49:13.036Z,58.15
2016-10-01T02:50:13.236Z,58.12
2016-10-01T02:51:13.386Z,58.11
2016-10-01T02:52:13.834Z,58.12
2016-10-01T02:53:13.206Z,58.14
2016-10-01T02:54:11.617Z,58.16
2016-10-01T02:55:13.499Z,58.12
2016-10-01T02:56:13.191Z,58.09
2016-10-01T02:57:12.774Z,58.08
2016-10-01T02:58:14.738Z,58.08
2016-10-01T02:59:13.784Z,58.08
2016-10-01T03:00:13.802Z,58.07
2016-10-01T03:01:14.906Z,58.07
2016-10-01T03:02:15.932Z,58.07
2016-10-01T03:03:14.463Z,58.04
2016-10-01T03:04:12.838Z,58.04
2016-10-01T03:05:14.852Z,58.07
2016-10-01T03:06:14.436Z,58.02
2016-10-01T03:07:13.574Z,58.03
2016-10-01T03:08:14.423Z,58.01
2016-10-01T03:09:10.443Z,58.02
2016-10-01T03:10:12.855Z,58.04
2016-10-01T03:11:15.874Z,58.02
2016-10-01T03:12:13.794Z,58.02
2016-10-01T03:13:14.231Z,57.99
2016-10-01T03:14:10.863Z,57.99
2016-10-01T03:15:13.025Z,57.97
2016-10-01T03:16:10.763Z,57.97
2016-10-01T03:17:13.303Z,57.96
2016-10-01T03:18:13.667Z,57.97
2016-10-01T03:19:13.577Z,57.86
2016-10-01T03:20:13.115Z,57.03
2016-10-01T03:21:12.693Z,57.04
2016-10-01T03:22:13.063Z,57.67
2016-10-01T03:23:14.268Z,57.82
2016-10-01T03:24:13.597Z,57.84
2016-10-01T03:25:13.857Z,57.87
2016-10-01T03:26:13.214Z,57.89
2016-10-01T03:27:13.986Z,57.88
2016-10-01T03:28:12.597Z,57.89
2016-10-01T03:29:13.231Z,57.91
2016-10-01T03:30:18.872Z,57.90
2016-10-01T03:31:13.262Z,57.90
2016-10-01T03:32:13.554Z,57.90
2016-10-01T03:33:13.567Z,57.89
2016-10-01T03:34:13.566Z,57.87
2016-10-01T03:35:13.604Z,57.87
2016-10-01T03:36:13.404Z,57.87
2016-10-01T03:37:12.947Z,57.87
2016-10-01T03:38:14.405Z,57.86
2016-10-01T03:39:14.663Z,57.88
2016-10-01T03:40:13.206Z,57.87
2016-10-01T03:41:12.645Z,57.88
2016-10-01T03:42:13.579Z,57.85
2016-10-01T03:43:14.781Z,57.82
2016-10-01T03:44:13.591Z,57.82
2016-10-01T03:45:13.928Z,57.81
2016-10-01T03:46:13.093Z,57.82
2016-10-01T03:47:13.237Z,57.83
2016-10-01T03:48:13.775Z,57.85
2016-10-01T03:49:13.165Z,57.83
2016-10-01T03:50:13.343Z,57.82
2016-10-01T03:51:12.830Z,57.82
2016-10-01T03:52:13.124Z,57.80
2016-10-01T03:53:14.125Z,57.82
2016-10-01T03:54:12.841Z,57.79
2016-10-01T03:55:13.530Z,57.80
2016-10-01T03:56:13.688Z,57.79
2016-10-01T03:57:10.264Z,57.84
2016-10-01T03:58:10.225Z,57.79
2016-10-01T03:59:13.206Z,57.77
2016-10-01T04:00:12.811Z,57.76
2016-10-01T04:01:13.270Z,57.73
2016-10-01T04:02:10.780Z,57.74
2016-10-01T04:03:13.044Z,57.72
2016-10-01T04:04:13.208Z,57.72
2016-10-01T04:05:11.537Z,57.73
2016-10-01T04:06:13.487Z,57.70
2016-10-01T04:07:12.833Z,57.67
2016-10-01T04:08:13.547Z,57.72
2016-10-01T04:09:13.405Z,57.73
2016-10-01T04:10:14.683Z,57.69
2016-10-01T04:11:15.022Z,57.67
2016-10-01T04:12:12.944Z,57.65
2016-10-01T04:13:12.438Z,57.69
2016-10-01T04:14:11.831Z,57.67
2016-10-01T04:15:14.881Z,57.65
2016-10-01T04:16:16.027Z,57.67
2016-10-01T04:17:10.665Z,57.64
2016-10-01T04:18:13.339Z,57.65
2016-10-01T04:19:12.610Z,57.65
2016-10-01T04:20:14.013Z,57.66
2016-10-01T04:21:13.593Z,57.63
2016-10-01T04:22:14.205Z,57.63
2016-10-01T04:23:12.636Z,57.60
2016-10-01T04:24:13.093Z,57.62
2016-10-01T04:25:18.151Z,57.60
2016-10-01T04:26:13.042Z,57.58
2016-10-01T04:27:14.341Z,57.60
2016-10-01T04:28:13.591Z,57.59
2016-10-01T04:29:12.967Z,57.63
2016-10-01T04:30:12.445Z,57.59
2016-10-01T04:31:14.187Z,57.58
2016-10-01T04:32:17.365Z,57.56
2016-10-01T04:33:13.022Z,57.56
2016-10-01T04:34:13.034Z,57.55
2016-10-01T04:35:12.450Z,57.57
2016-10-01T04:36:13.461Z,57.58
2016-10-01T04:37:13.465Z,57.59
2016-10-01T04:38:14.553Z,57.61
2016-10-01T04:39:13.795Z,57.56
2016-10-01T04:40:13.890Z,57.58
2016-10-01T04:41:13.846Z,57.53
2016-10-01T04:42:13.545Z,57.54
2016-10-01T04:43:11.883Z,57.58
2016-10-01T04:44:14.291Z,57.55
2016-10-01T04:45:13.190Z,57.56
2016-10-01T04:46:13.378Z,57.54
2016-10-01T04:47:12.695Z,57.56
2016-10-01T04:48:10.207Z,57.57
2016-10-01T04:49:13.124Z,57.45
2016-10-01T04:50:12.465Z,57.56
2016-10-01T04:51:14.015Z,57.54
2016-10-01T04:52:13.154Z,57.59
2016-10-01T04:53:12.830Z,57.57
2016-10-01T04:54:11.459Z,57.57
2016-10-01T04:55:12.677Z,57.58
2016-10-01T04:56:13.239Z,57.56
2016-10-01T04:57:13.423Z,57.55
2016-10-01T04:58:14.016Z,57.56
2016-10-01T04:59:13.081Z,57.53
2016-10-01T05:00:13.092Z,57.54
2016-10-01T05:01:13.218Z,57.57
2016-10-01T05:02:12.662Z,57.54
2016-10-01T05:03:13.076Z,57.54
2016-10-01T05:04:14.386Z,57.55
2016-10-01T05:05:13.196Z,57.52
2016-10-01T05:06:12.843Z,57.47
2016-10-01T05:07:13.666Z,57.50
2016-10-01T05:08:14.575Z,57.48
2016-10-01T05:09:13.367Z,57.51
2016-10-01T05:10:20.230Z,57.54
2016-10-01T05:11:13.085Z,57.51
2016-10-01T05:12:13.035Z,57.48
2016-10-01T05:13:13.090Z,57.47
2016-10-01T05:14:13.781Z,57.47
2016-10-01T05:15:13.317Z,57.46
2016-10-01T05:16:12.622Z,57.47
2016-10-01T05:17:14.651Z,57.48
2016-10-01T05:18:13.190Z,57.49
2016-10-01T05:19:12.689Z,57.50
2016-10-01T05:20:13.511Z,57.50
2016-10-01T05:21:13.491Z,57.45
2016-10-01T05:22:13.035Z,57.45
2016-10-01T05:23:13.157Z,57.46
2016-10-01T05:24:12.865Z,57.48
2016-10-01T05:25:14.086Z,57.46
2016-10-01T05:26:12.502Z,57.47
2016-10-01T05:27:14.658Z,57.47
2016-10-01T05:28:11.486Z,57.43
2016-10-01T05:29:09.789Z,57.47
2016-10-01T05:30:13.354Z,57.45
2016-10-01T05:31:13.902Z,57.43
2016-10-01T05:32:13.217Z,57.44
2016-10-01T05:33:13.206Z,57.42
2016-10-01T05:34:13.822Z,57.43
2016-10-01T05:35:13.225Z,57.41
2016-10-01T05:36:12.843Z,57.42
2016-10-01T05:37:14.027Z,57.45
2016-10-01T05:38:12.531Z,57.43
2016-10-01T05:39:13.585Z,57.45
2016-10-01T05:40:13.040Z,57.45
2016-10-01T05:41:12.416Z,57.43
2016-10-01T05:42:14.050Z,57.40
2016-10-01T05:43:13.025Z,57.26
2016-10-01T05:44:12.964Z,56.87
2016-10-01T05:45:13.043Z,57.27
2016-10-01T05:46:13.426Z,57.33
2016-10-01T05:47:13.942Z,57.40
2016-10-01T05:48:13.993Z,57.39
2016-10-01T05:49:12.566Z,57.44
2016-10-01T05:50:13.900Z,57.38
2016-10-01T05:51:13.786Z,57.37
2016-10-01T05:52:13.272Z,57.41
2016-10-01T05:53:18.707Z,57.36
2016-10-01T05:54:13.034Z,57.38
2016-10-01T05:55:13.016Z,57.39
2016-10-01T05:56:12.452Z,57.38
2016-10-01T05:57:14.216Z,57.36
2016-10-01T05:58:12.780Z,57.37
2016-10-01T05:59:13.156Z,57.39
2016-10-01T06:00:13.317Z,57.38
2016-10-01T06:01:13.373Z,57.39
2016-10-01T06:02:14.572Z,57.38
2016-10-01T06:03:10.701Z,57.38
2016-10-01T06:04:13.284Z,57.45
2016-10-01T06:05:12.857Z,57.44
2016-10-01T06:06:14.820Z,57.40
2016-10-01T06:07:13.366Z,57.40
2016-10-01T06:08:14.495Z,57.37
2016-10-01T06:09:14.271Z,57.40
2016-10-01T06:10:13.035Z,57.36
2016-10-01T06:11:12.584Z,57.38
2016-10-01T06:12:13.804Z,57.41
2016-10-01T06:13:13.661Z,57.39
2016-10-01T06:14:13.303Z,57.38
2016-10-01T06:15:12.749Z,57.41
2016-10-01T06:16:14.473Z,57.46
2016-10-01T06:17:13.183Z,57.30
2016-10-01T06:18:11.846Z,56.47
2016-10-01T06:19:13.232Z,57.19
2016-10-01T06:20:13.236Z,57.26
2016-10-01T06:21:13.304Z,57.32
2016-10-01T06:22:14.293Z,57.32
2016-10-01T06:23:12.910Z,57.32
2016-10-01T06:24:13.351Z,57.31
2016-10-01T06:25:15.488Z,53.67
2016-10-01T06:26:13.791Z,52.37
2016-10-01T06:27:13.217Z,50.92
2016-10-01T06:28:14.281Z,51.45
2016-10-01T06:29:12.747Z,51.67
2016-10-01T06:30:15.066Z,51.51
2016-10-01T06:31:11.139Z,52.41
2016-10-01T06:32:13.729Z,52.59
2016-10-01T06:33:13.394Z,52.32
2016-10-01T06:34:13.386Z,52.41
2016-10-01T06:35:13.604Z,52.99
2016-10-01T06:36:13.485Z,53.35
2016-10-01T06:37:19.036Z,53.12
2016-10-01T06:38:13.015Z,52.76
2016-10-01T06:39:15.736Z,53.22
2016-10-01T06:40:13.556Z,53.79
2016-10-01T06:41:13.144Z,53.71
2016-10-01T06:42:14.183Z,54.26
2016-10-01T06:43:13.017Z,54.42
2016-10-01T06:44:13.099Z,54.52
2016-10-01T06:45:15.320Z,54.67
2016-10-01T06:46:13.311Z,54.98
2016-10-01T06:47:13.885Z,55.04
2016-10-01T06:48:13.888Z,54.88
2016-10-01T06:49:13.222Z,55.06
2016-10-01T06:50:12.688Z,55.13
2016-10-01T06:51:13.305Z,54.98
2016-10-01T06:52:13.209Z,55.16
2016-10-01T06:53:13.132Z,55.03
2016-10-01T06:54:12.573Z,55.16
2016-10-01T06:55:13.770Z,55.11
2016-10-01T06:56:13.230Z,55.17
2016-10-01T06:57:13.228Z,55.32
2016-10-01T06:58:13.295Z,54.43
2016-10-01T06:59:12.807Z,55.40
2016-10-01T07:00:16.199Z,55.08
2016-10-01T07:01:10.225Z,55.40
2016-10-01T07:02:12.159Z,55.28
2016-10-01T07:03:14.298Z,55.29
2016-10-01T07:04:13.220Z,55.27
2016-10-01T07:05:10.843Z,55.44
2016-10-01T07:06:12.423Z,55.43
2016-10-01T07:07:11.007Z,55.48
2016-10-01T07:08:16.995Z,55.50
2016-10-01T07:09:10.549Z,55.62
2016-10-01T07:10:14.523Z,55.72
2016-10-01T07:11:13.642Z,55.84
2016-10-01T07:12:14.794Z,56.49
2016-10-01T07:13:13.814Z,56.53
2016-10-01T07:14:13.485Z,56.97
2016-10-01T07:15:14.434Z,57.50
2016-10-01T07:16:12.840Z,57.65
2016-10-01T07:17:14.995Z,57.77
2016-10-01T07:18:14.454Z,57.84
2016-10-01T07:19:13.320Z,58.16
2016-10-01T07:20:10.593Z,58.51
2016-10-01T07:21:12.641Z,58.44
2016-10-01T07:22:10.756Z,58.49
2016-10-01T07:23:13.118Z,58.44
2016-10-01T07:24:13.108Z,58.46
2016-10-01T07:25:13.039Z,58.43
2016-10-01T07:26:14.421Z,58.32
2016-10-01T07:27:13.506Z,58.35
2016-10-01T07:28:10.353Z,58.27
2016-10-01T07:29:14.325Z,58.21
2016-10-01T07:30:12.941Z,58.14
2016-10-01T07:31:12.934Z,58.13
2016-10-01T07:32:12.583Z,58.01
2016-10-01T07:33:13.242Z,57.98
2016-10-01T07:34:12.842Z,57.97
2016-10-01T07:35:14.029Z,57.98
2016-10-01T07:36:13.053Z,58.02
2016-10-01T07:37:12.434Z,58.07
2016-10-01T07:38:13.671Z,58.25
2016-10-01T07:39:13.075Z,58.26
2016-10-01T07:40:13.347Z,58.26
2016-10-01T07:41:14.595Z,58.38
2016-10-01T07:42:13.030Z,56.67
2016-10-01T07:43:13.241Z,52.65
2016-10-01T07:44:11.676Z,52.06
2016-10-01T07:45:10.565Z,51.68
2016-10-01T07:46:13.310Z,52.18
2016-10-01T07:47:12.899Z,51.83
2016-10-01T07:48:14.151Z,51.17
2016-10-01T07:49:13.397Z,51.23
2016-10-01T07:50:13.635Z,52.04
2016-10-01T07:51:13.570Z,52.21
2016-10-01T07:52:14.674Z,51.92
2016-10-01T07:53:13.677Z,52.22
2016-10-01T07:54:14.057Z,52.30
2016-10-01T07:55:13.236Z,52.69
2016-10-01T07:56:15.585Z,52.80
2016-10-01T07:57:13.120Z,53.02
2016-10-01T07:58:13.563Z,52.99
2016-10-01T07:59:12.838Z,53.22
2016-10-01T08:00:15.105Z,53.33
2016-10-01T08:01:12.454Z,53.48
2016-10-01T08:02:13.503Z,53.65
2016-10-01T08:03:13.531Z,53.93
2016-10-01T08:04:13.012Z,53.64
2016-10-01T08:05:18.755Z,54.01
2016-10-01T08:06:13.861Z,53.92
2016-10-01T08:07:14.055Z,54.15
2016-10-01T08:08:13.023Z,54.19
2016-10-01T08:09:13.164Z,54.15
2016-10-01T08:10:12.604Z,53.84
2016-10-01T08:11:13.122Z,53.77
2016-10-01T08:12:12.541Z,53.86
2016-10-01T08:13:13.268Z,53.86
2016-10-01T08:14:12.850Z,53.66
2016-10-01T08:15:13.173Z,53.76
2016-10-01T08:16:14.375Z,53.82
2016-10-01T08:17:13.373Z,53.71
2016-10-01T08:18:13.823Z,53.97
2016-10-01T08:19:13.200Z,54.13
2016-10-01T08:20:13.681Z,53.97
2016-10-01T08:21:13.191Z,53.88
2016-10-01T08:22:13.633Z,54.19
2016-10-01T08:23:13.714Z,53.77
2016-10-01T08:24:14.621Z,54.02
2016-10-01T08:25:14.737Z,53.90
2016-10-01T08:26:14.088Z,54.23
2016-10-01T08:27:13.993Z,53.91
2016-10-01T08:28:12.441Z,54.10
2016-10-01T08:29:13.893Z,54.15
2016-10-01T08:30:19.001Z,54.05
2016-10-01T08:31:13.049Z,54.78
2016-10-01T08:32:12.524Z,54.63
2016-10-01T08:33:12.998Z,54.25
2016-10-01T08:34:13.259Z,54.58
2016-10-01T08:35:13.212Z,54.58
2016-10-01T08:36:12.972Z,54.46
2016-10-01T08:37:09.769Z,54.81
2016-10-01T08:38:13.265Z,55.01
2016-10-01T08:39:13.233Z,54.80
2016-10-01T08:40:12.633Z,54.72
2016-10-01T08:41:13.175Z,54.75
2016-10-01T08:42:13.417Z,54.33
2016-10-01T08:43:14.415Z,53.41
2016-10-01T08:44:12.885Z,53.46
2016-10-01T08:45:12.954Z,53.37
2016-10-01T08:46:14.147Z,53.44
2016-10-01T08:47:12.727Z,53.44
2016-10-01T08:48:13.463Z,54.14
2016-10-01T08:49:13.610Z,53.96
2016-10-01T08:50:13.583Z,53.97
2016-10-01T08:51:13.036Z,54.28
2016-10-01T08:52:13.135Z,54.04
2016-10-01T08:53:15.253Z,53.61
2016-10-01T08:54:12.718Z,53.52
2016-10-01T08:55:13.082Z,53.84
2016-10-01T08:56:13.212Z,53.63
2016-10-01T08:57:13.243Z,52.82
2016-10-01T08:58:12.899Z,52.24
2016-10-01T08:59:14.019Z,53.04
2016-10-01T09:00:12.490Z,53.08
2016-10-01T09:01:13.414Z,53.17
2016-10-01T09:02:18.913Z,53.03
2016-10-01T09:03:13.336Z,53.03
2016-10-01T09:04:13.030Z,53.16
2016-10-01T09:05:13.127Z,52.34
2016-10-01T09:06:13.073Z,52.39
2016-10-01T09:07:12.614Z,52.28
2016-10-01T09:08:13.184Z,52.48
2016-10-01T09:09:13.056Z,52.29
2016-10-01T09:10:12.845Z,51.75
2016-10-01T09:11:13.235Z,51.65
2016-10-01T09:12:13.408Z,52.83
2016-10-01T09:13:11.719Z,52.15
2016-10-01T09:14:10.643Z,50.40
2016-10-01T09:15:13.237Z,50.21
2016-10-01T09:16:13.264Z,50.30
2016-10-01T09:17:14.261Z,50.33
2016-10-01T09:18:12.574Z,49.99
2016-10-01T09:19:15.130Z,49.98
2016-10-01T09:20:13.208Z,49.68
2016-10-01T09:21:14.681Z,48.78
2016-10-01T09:22:13.578Z,48.23
2016-10-01T09:23:13.031Z,47.86
2016-10-01T09:24:13.407Z,48.02
2016-10-01T09:25:13.385Z,48.57
2016-10-01T09:26:13.051Z,48.60
2016-10-01T09:27:12.843Z,48.62
2016-10-01T09:28:13.224Z,49.13
2016-10-01T09:29:12.733Z,48.71
2016-10-01T09:30:13.224Z,49.58
2016-10-01T09:31:12.872Z,49.83
2016-10-01T09:32:13.418Z,50.11
2016-10-01T09:33:13.538Z,50.29
2016-10-01T09:34:14.002Z,50.17
2016-10-01T09:35:13.033Z,49.72
2016-10-01T09:36:12.460Z,50.04
2016-10-01T09:37:13.060Z,50.14
2016-10-01T09:38:13.272Z,50.37
2016-10-01T09:39:13.221Z,50.45
2016-10-01T09:40:13.228Z,50.85
2016-10-01T09:41:12.811Z,51.31
2016-10-01T09:42:13.796Z,51.20
2016-10-01T09:43:13.812Z,51.21
2016-10-01T09:44:15.843Z,51.39
2016-10-01T09:45:13.442Z,51.25
2016-10-01T09:46:13.193Z,51.30
2016-10-01T09:47:13.588Z,51.68
2016-10-01T09:48:13.786Z,51.79
2016-10-01T09:49:13.849Z,51.35
2016-10-01T09:50:13.842Z,50.35
2016-10-01T09:51:14.015Z,49.21
2016-10-01T09:52:12.971Z,49.81
2016-10-01T09:53:13.178Z,49.22
2016-10-01T09:54:12.633Z,50.36
2016-10-01T09:55:13.223Z,50.34
2016-10-01T09:56:12.843Z,51.61
2016-10-01T09:57:13.515Z,51.01
2016-10-01T09:58:13.698Z,52.03
2016-10-01T09:59:13.962Z,52.10
2016-10-01T10:00:11.371Z,51.84
2016-10-01T10:01:14.344Z,51.95
2016-10-01T10:02:13.622Z,51.46
2016-10-01T10:03:13.954Z,51.54
2016-10-01T10:04:13.315Z,51.29
2016-10-01T10:05:12.853Z,49.74
2016-10-01T10:06:13.723Z,49.92
2016-10-01T10:07:13.229Z,49.57
2016-10-01T10:08:13.674Z,49.08
2016-10-01T10:09:10.605Z,49.36
2016-10-01T10:10:13.651Z,49.57
2016-10-01T10:11:10.261Z,50.46
2016-10-01T10:12:14.642Z,51.45
2016-10-01T10:13:13.663Z,51.89
2016-10-01T10:14:11.234Z,51.25
2016-10-01T10:15:13.192Z,50.95
2016-10-01T10:16:14.492Z,51.61
2016-10-01T10:17:13.602Z,52.86
2016-10-01T10:18:14.939Z,51.79
2016-10-01T10:19:13.101Z,51.99
2016-10-01T10:20:12.614Z,51.59
2016-10-01T10:21:12.984Z,52.43
2016-10-01T10:22:13.027Z,51.86
2016-10-01T10:23:13.011Z,51.64
2016-10-01T10:24:15.159Z,51.77
2016-10-01T10:25:11.530Z,51.67
2016-10-01T10:26:15.592Z,51.93
2016-10-01T10:27:13.563Z,51.12
2016-10-01T10:28:13.194Z,51.40
2016-10-01T10:29:12.852Z,51.56
2016-10-01T10:30:13.391Z,51.48
2016-10-01T10:31:13.651Z,52.36
2016-10-01T10:32:13.577Z,52.85
2016-10-01T10:33:13.415Z,51.60
2016-10-01T10:34:15.653Z,51.14
2016-10-01T10:35:13.116Z,51.15
2016-10-01T10:36:14.364Z,51.31
2016-10-01T10:37:12.892Z,49.54
2016-10-01T10:38:13.375Z,50.00
2016-10-01T10:39:13.378Z,50.51
2016-10-01T10:40:13.003Z,49.71
2016-10-01T10:41:14.071Z,49.63
2016-10-01T10:42:12.503Z,49.89
2016-10-01T10:43:14.733Z,49.70
2016-10-01T10:44:13.654Z,49.89
2016-10-01T10:45:13.107Z,49.44
2016-10-01T10:46:15.287Z,48.69
2016-10-01T10:47:12.950Z,49.53
2016-10-01T10:48:11.576Z,48.80
2016-10-01T10:49:13.401Z,49.08
2016-10-01T10:50:10.291Z,48.41
2016-10-01T10:51:13.017Z,48.62
2016-10-01T10:52:12.513Z,48.92
2016-10-01T10:53:11.991Z,48.59
2016-10-01T10:54:13.785Z,48.65
2016-10-01T10:55:13.192Z,48.50
2016-10-01T10:56:13.386Z,48.81
2016-10-01T10:57:15.526Z,47.49
2016-10-01T10:58:13.740Z,47.85
2016-10-01T10:59:13.022Z,47.32
2016-10-01T11:00:13.027Z,47.79
2016-10-01T11:01:14.279Z,47.80
2016-10-01T11:02:13.397Z,47.77
2016-10-01T11:03:11.831Z,47.41
2016-10-01T11:04:10.655Z,47.92
2016-10-01T11:05:13.533Z,47.91
2016-10-01T11:06:13.634Z,47.88
2016-10-01T11:07:13.729Z,48.64
2016-10-01T11:08:13.391Z,48.56
2016-10-01T11:09:13.573Z,47.86
2016-10-01T11:10:13.028Z,47.98
2016-10-01T11:11:15.604Z,47.77
2016-10-01T11:12:14.219Z,47.58
2016-10-01T11:13:13.480Z,48.21
2016-10-01T11:14:12.774Z,47.80
2016-10-01T11:15:13.060Z,47.67
2016-10-01T11:16:12.495Z,48.94
2016-10-01T11:17:13.304Z,49.19
2016-10-01T11:18:13.288Z,49.52
2016-10-01T11:19:12.933Z,49.01
2016-10-01T11:20:13.074Z,48.83
2016-10-01T11:21:13.103Z,48.93
2016-10-01T11:22:14.031Z,49.01
2016-10-01T11:23:14.820Z,49.19
2016-10-01T11:24:14.190Z,49.47
2016-10-01T11:25:12.864Z,50.02
2016-10-01T11:26:13.215Z,50.32
2016-10-01T11:27:12.857Z,50.40
2016-10-01T11:28:13.417Z,50.43
2016-10-01T11:29:11.461Z,50.47
2016-10-01T11:30:12.775Z,50.59
2016-10-01T11:31:13.794Z,50.59
2016-10-01T11:32:10.665Z,50.55
2016-10-01T11:33:13.532Z,50.61
2016-10-01T11:34:13.545Z,50.62
2016-10-01T11:35:13.791Z,51.10
2016-10-01T11:36:13.646Z,50.75
2016-10-01T11:37:13.224Z,50.91
2016-10-01T11:38:12.766Z,50.84
2016-10-01T11:39:13.411Z,50.91
2016-10-01T11:40:13.386Z,50.95
2016-10-01T11:41:13.013Z,51.00
2016-10-01T11:42:13.151Z,51.04
2016-10-01T11:43:12.852Z,51.26
2016-10-01T11:44:13.234Z,51.13
2016-10-01T11:45:15.210Z,51.12
2016-10-01T11:46:09.654Z,51.19
2016-10-01T11:47:13.095Z,51.25
2016-10-01T11:48:13.192Z,51.48
2016-10-01T11:49:12.711Z,51.47
2016-10-01T11:50:13.671Z,51.28
2016-10-01T11:51:13.781Z,51.39
2016-10-01T11:52:13.221Z,51.45
2016-10-01T11:53:12.700Z,51.49
2016-10-01T11:54:13.592Z,51.61
2016-10-01T11:55:13.766Z,51.56
2016-10-01T11:56:13.822Z,51.59
2016-10-01T11:57:13.397Z,51.59
2016-10-01T11:58:15.540Z,51.69
2016-10-01T11:59:12.848Z,51.73
2016-10-01T12:00:14.906Z,51.69
2016-10-01T12:01:11.453Z,51.75
2016-10-01T12:02:13.603Z,51.95
2016-10-01T12:03:13.233Z,51.83
2016-10-01T12:04:13.027Z,52.02
2016-10-01T12:05:13.098Z,52.31
2016-10-01T12:06:13.212Z,52.32
2016-10-01T12:07:13.039Z,52.58
2016-10-01T12:08:14.868Z,52.55
2016-10-01T12:09:13.252Z,52.58
2016-10-01T12:10:15.041Z,52.72
2016-10-01T12:11:13.080Z,52.66
2016-10-01T12:12:16.947Z,52.62
2016-10-01T12:13:13.146Z,52.68
2016-10-01T12:14:12.819Z,52.85
2016-10-01T12:15:12.122Z,52.94
2016-10-01T12:16:13.071Z,52.39
2016-10-01T12:17:12.586Z,52.38
2016-10-01T12:18:13.223Z,52.56
2016-10-01T12:19:12.584Z,53.55
2016-10-01T12:20:14.062Z,53.85
2016-10-01T12:21:12.532Z,54.23
2016-10-01T12:22:13.014Z,54.41
2016-10-01T12:23:13.206Z,54.67
2016-10-01T12:24:13.032Z,54.84
2016-10-01T12:25:12.510Z,54.82
2016-10-01T12:26:11.956Z,54.72
2016-10-01T12:27:13.345Z,54.19
2016-10-01T12:28:14.364Z,54.78
2016-10-01T12:29:11.248Z,54.93
2016-10-01T12:30:13.810Z,55.05
2016-10-01T12:31:13.202Z,55.10
2016-10-01T12:32:13.445Z,55.15
2016-10-01T12:33:13.584Z,55.24
2016-10-01T12:34:16.879Z,55.13
2016-10-01T12:35:12.637Z,55.23
2016-10-01T12:36:13.197Z,55.29
2016-10-01T12:37:14.331Z,55.47
2016-10-01T12:38:13.388Z,55.47
2016-10-01T12:39:14.704Z,55.52
2016-10-01T12:40:13.164Z,55.58
2016-10-01T12:41:12.614Z,55.57
2016-10-01T12:42:13.256Z,55.61
2016-10-01T12:43:12.646Z,55.87
2016-10-01T12:44:13.225Z,55.58
2016-10-01T12:45:13.221Z,55.67
2016-10-01T12:46:13.146Z,55.64
2016-10-01T12:47:13.191Z,55.90
2016-10-01T12:48:13.171Z,56.05
2016-10-01T12:49:12.580Z,55.92
2016-10-01T12:50:13.890Z,55.98
2016-10-01T12:51:13.828Z,56.02
2016-10-01T12:52:14.149Z,56.08